createdAt,value
2023-05-24T00:01:41.287Z,58944.16
2023-05-24T00:04:12.699Z,58944.16
2023-05-24T00:06:44.742Z,58944.16
2023-05-24T00:09:17.121Z,58944.16
2023-05-24T00:11:46.369Z,58944.16
2023-05-24T00:14:15.637Z,58944.16
2023-05-24T00:16:57.478Z,58944.16
2023-05-24T00:19:29.788Z,58944.16
2023-05-24T00:22:05.410Z,58944.16
2023-05-24T00:24:37.288Z,58944.16
2023-05-24T00:27:17.361Z,58944.16
2023-05-24T00:29:55.384Z,58944.16
2023-05-24T00:32:39.410Z,58944.16
2023-05-24T00:35:22.472Z,58944.16
2023-05-24T00:38:42.859Z,58944.16
2023-05-24T00:40:55.275Z,58944.16
2023-05-24T00:43:27.534Z,58944.16
2023-05-24T00:46:13.245Z,58944.16
2023-05-24T00:48:45.810Z,58944.16
2023-05-24T00:51:40.082Z,58944.16
2023-05-24T00:54:28.468Z,58944.16
2023-05-24T00:57:08.921Z,58944.16
2023-05-24T00:59:43.945Z,58944.16
2023-05-24T01:02:16.433Z,58944.16
2023-05-24T01:05:00.161Z,58944.16
2023-05-24T01:07:39.034Z,58944.16
2023-05-24T01:10:15.037Z,58944.16
2023-05-24T01:12:44.155Z,58944.16
2023-05-24T01:15:16.385Z,58944.16
2023-05-24T01:18:18.033Z,58944.16
2023-05-24T01:20:50.339Z,58944.16
2023-05-24T01:23:59.448Z,58944.16
2023-05-24T01:26:40.939Z,58944.16
2023-05-24T01:29:23.751Z,58944.16
2023-05-24T01:31:53.301Z,58944.16
2023-05-24T01:34:24.879Z,58944.16
2023-05-24T01:36:57.108Z,100473.53
2023-05-24T01:39:26.963Z,100477.16
2023-05-24T01:42:14.025Z,100467.13
2023-05-24T01:45:23.684Z,100476.84
2023-05-24T01:48:02.466Z,100483.25
2023-05-24T01:50:35.535Z,100478.88
2023-05-24T01:53:15.397Z,100468.63
2023-05-24T01:55:49.799Z,100476.38
2023-05-24T02:01:04.740Z,100477.56
2023-05-24T02:03:53.966Z,100467.47
2023-05-24T02:06:26.073Z,100459.81
2023-05-24T02:08:55.165Z,100461.78
2023-05-24T02:14:06.317Z,100471.94
2023-05-24T02:16:38.355Z,100463.88
2023-05-24T02:19:10.617Z,100469.63
2023-05-24T02:21:42.434Z,100466.94
2023-05-24T02:24:16.993Z,100474.38
2023-05-24T02:26:46.285Z,100468.25
2023-05-24T02:29:24.192Z,100465.78
2023-05-24T02:32:01.056Z,100459.22
2023-05-24T02:34:30.130Z,100457.19
2023-05-24T02:37:04.680Z,100456.47
2023-05-24T02:39:33.872Z,100464.25
2023-05-24T02:42:03.104Z,100458.69
2023-05-24T02:44:32.271Z,100458.56
2023-05-24T02:47:01.415Z,100454.16
2023-05-24T02:49:33.277Z,100455.56
2023-05-24T02:52:02.330Z,100465.13
2023-05-24T02:54:31.468Z,100458.38
2023-05-24T02:57:00.679Z,100449.47
2023-05-24T02:59:33.001Z,100450.19
2023-05-24T03:02:02.556Z,100452.88
2023-05-24T03:04:41.782Z,58944.16
2023-05-24T03:07:15.577Z,58944.16
2023-05-24T03:09:53.403Z,58944.16
2023-05-24T03:12:22.470Z,58944.16
2023-05-24T03:14:51.606Z,58944.16
2023-05-24T03:17:23.466Z,58944.16
2023-05-24T03:19:57.423Z,58944.16
2023-05-24T03:22:26.516Z,58944.16
2023-05-24T03:24:58.304Z,58944.16
2023-05-24T03:27:30.272Z,58944.16
2023-05-24T03:29:59.408Z,58944.16
2023-05-24T03:32:34.323Z,58944.16
2023-05-24T03:35:08.717Z,58944.16
2023-05-24T03:37:38.405Z,58944.16
2023-05-24T03:40:12.423Z,58944.16
2023-05-24T03:42:49.971Z,58944.16
2023-05-24T03:45:37.510Z,58944.16
2023-05-24T03:48:11.336Z,58944.16
2023-05-24T03:50:43.341Z,58944.16
2023-05-24T03:53:15.539Z,58944.16
2023-05-24T03:55:45.220Z,58944.16
2023-05-24T03:58:15.407Z,58944.16
2023-05-24T04:00:55.761Z,58944.16
2023-05-24T04:03:35.017Z,58944.16
2023-05-24T04:06:06.759Z,58944.16
2023-05-24T04:08:48.782Z,58944.16
2023-05-24T04:11:55.629Z,58944.16
2023-05-24T04:14:36.013Z,58944.16
2023-05-24T04:17:09.190Z,58944.16
2023-05-24T04:19:44.684Z,58944.16
2023-05-24T04:22:13.941Z,58944.16
2023-05-24T04:24:49.755Z,58944.16
2023-05-24T04:27:33.936Z,58944.16
